sensor_id;sensor_type;location;lat;lon;timestamp;P1;durP1;ratioP1;P2;durP2;ratioP2
9294;SDS011;4686;44.496;11.324;2023-03-04T00:00:04;20.60;;;17.90;;
9294;SDS011;4686;44.496;11.324;2023-03-04T00:02:33;21.80;;;18.70;;
9294;SDS011;4686;44.496;11.324;2023-03-04T00:05:01;21.77;;;18.40;;
9294;SDS011;4686;44.496;11.324;2023-03-04T00:07:29;22.37;;;19.60;;
9294;SDS011;4686;44.496;11.324;2023-03-04T00:09:56;24.00;;;17.73;;
9294;SDS011;4686;44.496;11.324;2023-03-04T00:12:23;24.60;;;19.60;;
9294;SDS011;4686;44.496;11.324;2023-03-04T00:14:50;21.57;;;17.47;;
9294;SDS011;4686;44.496;11.324;2023-03-04T00:17:17;24.83;;;18.83;;
9294;SDS011;4686;44.496;11.324;2023-03-04T00:19:46;27.60;;;17.20;;
9294;SDS011;4686;44.496;11.324;2023-03-04T00:22:13;24.63;;;19.07;;
9294;SDS011;4686;44.496;11.324;2023-03-04T00:24:41;23.20;;;18.13;;
9294;SDS011;4686;44.496;11.324;2023-03-04T00:27:08;23.63;;;18.30;;
9294;SDS011;4686;44.496;11.324;2023-03-04T00:29:35;20.13;;;17.93;;
9294;SDS011;4686;44.496;11.324;2023-03-04T00:32:03;24.30;;;19.27;;
9294;SDS011;4686;44.496;11.324;2023-03-04T00:34:30;24.40;;;19.47;;
9294;SDS011;4686;44.496;11.324;2023-03-04T00:36:58;20.73;;;18.47;;
9294;SDS011;4686;44.496;11.324;2023-03-04T00:39:27;24.20;;;18.63;;
9294;SDS011;4686;44.496;11.324;2023-03-04T00:41:56;24.80;;;19.70;;
9294;SDS011;4686;44.496;11.324;2023-03-04T00:44:23;23.90;;;18.90;;
9294;SDS011;4686;44.496;11.324;2023-03-04T00:46:50;27.40;;;21.40;;
9294;SDS011;4686;44.496;11.324;2023-03-04T00:49:17;29.70;;;19.27;;
9294;SDS011;4686;44.496;11.324;2023-03-04T00:51:44;28.63;;;21.00;;
9294;SDS011;4686;44.496;11.324;2023-03-04T00:54:13;24.33;;;18.70;;
9294;SDS011;4686;44.496;11.324;2023-03-04T00:56:40;28.57;;;19.80;;
9294;SDS011;4686;44.496;11.324;2023-03-04T00:59:07;27.37;;;21.17;;
9294;SDS011;4686;44.496;11.324;2023-03-04T01:01:34;24.93;;;20.40;;
9294;SDS011;4686;44.496;11.324;2023-03-04T01:04:02;33.57;;;20.23;;
9294;SDS011;4686;44.496;11.324;2023-03-04T01:06:29;24.63;;;20.30;;
9294;SDS011;4686;44.496;11.324;2023-03-04T01:08:56;22.77;;;19.23;;
9294;SDS011;4686;44.496;11.324;2023-03-04T01:11:25;26.50;;;19.50;;
9294;SDS011;4686;44.496;11.324;2023-03-04T01:13:52;24.73;;;19.80;;
9294;SDS011;4686;44.496;11.324;2023-03-04T01:16:19;25.23;;;20.30;;
9294;SDS011;4686;44.496;11.324;2023-03-04T01:18:46;26.23;;;20.67;;
9294;SDS011;4686;44.496;11.324;2023-03-04T01:21:14;31.30;;;19.50;;
9294;SDS011;4686;44.496;11.324;2023-03-04T01:23:41;25.57;;;19.57;;
9294;SDS011;4686;44.496;11.324;2023-03-04T01:26:08;29.43;;;20.90;;
9294;SDS011;4686;44.496;11.324;2023-03-04T01:28:37;24.67;;;20.03;;
9294;SDS011;4686;44.496;11.324;2023-03-04T01:31:04;23.97;;;20.37;;
9294;SDS011;4686;44.496;11.324;2023-03-04T01:33:31;23.97;;;20.43;;
9294;SDS011;4686;44.496;11.324;2023-03-04T01:35:59;24.53;;;20.50;;
9294;SDS011;4686;44.496;11.324;2023-03-04T01:38:26;31.07;;;21.20;;
9294;SDS011;4686;44.496;11.324;2023-03-04T01:40:54;23.60;;;19.80;;
9294;SDS011;4686;44.496;11.324;2023-03-04T01:43:21;28.40;;;20.50;;
9294;SDS011;4686;44.496;11.324;2023-03-04T01:45:50;24.87;;;20.57;;
9294;SDS011;4686;44.496;11.324;2023-03-04T01:48:20;20.80;;;18.57;;
9294;SDS011;4686;44.496;11.324;2023-03-04T01:50:48;26.93;;;21.03;;
9294;SDS011;4686;44.496;11.324;2023-03-04T01:53:17;24.23;;;21.50;;
9294;SDS011;4686;44.496;11.324;2023-03-04T01:56:01;25.60;;;21.00;;
9294;SDS011;4686;44.496;11.324;2023-03-04T01:58:30;22.07;;;19.67;;
9294;SDS011;4686;44.496;11.324;2023-03-04T02:00:58;28.20;;;19.80;;
9294;SDS011;4686;44.496;11.324;2023-03-04T02:03:26;38.70;;;19.43;;
9294;SDS011;4686;44.496;11.324;2023-03-04T02:05:53;86.20;;;25.20;;
9294;SDS011;4686;44.496;11.324;2023-03-04T02:08:21;31.50;;;21.07;;
9294;SDS011;4686;44.496;11.324;2023-03-04T02:10:49;26.60;;;21.30;;
9294;SDS011;4686;44.496;11.324;2023-03-04T02:13:17;28.60;;;19.50;;
9294;SDS011;4686;44.496;11.324;2023-03-04T02:15:44;27.23;;;19.20;;
9294;SDS011;4686;44.496;11.324;2023-03-04T02:18:14;24.27;;;21.17;;
9294;SDS011;4686;44.496;11.324;2023-03-04T02:20:44;23.20;;;18.40;;
9294;SDS011;4686;44.496;11.324;2023-03-04T02:23:14;27.50;;;20.87;;
9294;SDS011;4686;44.496;11.324;2023-03-04T02:25:44;28.10;;;20.80;;
9294;SDS011;4686;44.496;11.324;2023-03-04T02:28:13;28.00;;;19.30;;
9294;SDS011;4686;44.496;11.324;2023-03-04T02:30:41;26.47;;;20.70;;
9294;SDS011;4686;44.496;11.324;2023-03-04T02:33:12;23.23;;;19.23;;
9294;SDS011;4686;44.496;11.324;2023-03-04T02:35:40;24.53;;;19.23;;
9294;SDS011;4686;44.496;11.324;2023-03-04T02:38:08;26.40;;;21.00;;
9294;SDS011;4686;44.496;11.324;2023-03-04T02:40:35;28.23;;;19.90;;
9294;SDS011;4686;44.496;11.324;2023-03-04T02:43:03;25.03;;;19.73;;
9294;SDS011;4686;44.496;11.324;2023-03-04T02:45:36;27.30;;;20.40;;
9294;SDS011;4686;44.496;11.324;2023-03-04T02:48:03;25.20;;;20.57;;
9294;SDS011;4686;44.496;11.324;2023-03-04T02:50:32;30.13;;;20.97;;
9294;SDS011;4686;44.496;11.324;2023-03-04T02:53:00;25.77;;;20.60;;
9294;SDS011;4686;44.496;11.324;2023-03-04T02:55:27;25.10;;;20.27;;
9294;SDS011;4686;44.496;11.324;2023-03-04T02:57:54;27.00;;;20.63;;
9294;SDS011;4686;44.496;11.324;2023-03-04T03:00:22;30.23;;;21.30;;
9294;SDS011;4686;44.496;11.324;2023-03-04T03:02:50;30.00;;;20.20;;
9294;SDS011;4686;44.496;11.324;2023-03-04T03:05:18;24.83;;;21.37;;
9294;SDS011;4686;44.496;11.324;2023-03-04T03:07:45;35.07;;;22.50;;
9294;SDS011;4686;44.496;11.324;2023-03-04T03:10:12;26.20;;;21.60;;
9294;SDS011;4686;44.496;11.324;2023-03-04T03:12:39;25.47;;;20.17;;
9294;SDS011;4686;44.496;11.324;2023-03-04T03:15:07;27.83;;;20.63;;
9294;SDS011;4686;44.496;11.324;2023-03-04T03:17:34;26.90;;;20.73;;
9294;SDS011;4686;44.496;11.324;2023-03-04T03:20:03;31.23;;;22.07;;
9294;SDS011;4686;44.496;11.324;2023-03-04T03:22:30;27.10;;;20.97;;
9294;SDS011;4686;44.496;11.324;2023-03-04T03:24:57;32.93;;;20.37;;
9294;SDS011;4686;44.496;11.324;2023-03-04T03:27:24;24.57;;;20.10;;
9294;SDS011;4686;44.496;11.324;2023-03-04T03:29:52;26.67;;;19.87;;
9294;SDS011;4686;44.496;11.324;2023-03-04T03:32:19;29.73;;;22.77;;
9294;SDS011;4686;44.496;11.324;2023-03-04T03:34:46;29.57;;;21.17;;
9294;SDS011;4686;44.496;11.324;2023-03-04T03:37:14;28.93;;;20.93;;
9294;SDS011;4686;44.496;11.324;2023-03-04T03:39:42;31.27;;;22.43;;
9294;SDS011;4686;44.496;11.324;2023-03-04T03:42:09;26.50;;;20.60;;
9294;SDS011;4686;44.496;11.324;2023-03-04T03:44:36;28.10;;;21.40;;
9294;SDS011;4686;44.496;11.324;2023-03-04T03:47:03;27.10;;;20.77;;
9294;SDS011;4686;44.496;11.324;2023-03-04T03:49:31;23.77;;;19.60;;
9294;SDS011;4686;44.496;11.324;2023-03-04T03:51:58;28.93;;;20.97;;
9294;SDS011;4686;44.496;11.324;2023-03-04T03:54:26;24.90;;;19.60;;
9294;SDS011;4686;44.496;11.324;2023-03-04T03:56:54;26.30;;;20.80;;
9294;SDS011;4686;44.496;11.324;2023-03-04T03:59:21;24.77;;;19.83;;
9294;SDS011;4686;44.496;11.324;2023-03-04T04:01:49;25.83;;;20.47;;
9294;SDS011;4686;44.496;11.324;2023-03-04T04:04:16;26.43;;;20.70;;
9294;SDS011;4686;44.496;11.324;2023-03-04T04:06:43;26.83;;;22.40;;
9294;SDS011;4686;44.496;11.324;2023-03-04T04:09:11;31.60;;;21.57;;
9294;SDS011;4686;44.496;11.324;2023-03-04T04:11:39;25.13;;;20.90;;
9294;SDS011;4686;44.496;11.324;2023-03-04T04:14:07;26.53;;;21.87;;
9294;SDS011;4686;44.496;11.324;2023-03-04T04:16:34;30.43;;;21.57;;
9294;SDS011;4686;44.496;11.324;2023-03-04T04:19:02;28.93;;;21.47;;
9294;SDS011;4686;44.496;11.324;2023-03-04T04:21:29;30.87;;;23.23;;
9294;SDS011;4686;44.496;11.324;2023-03-04T04:23:56;27.33;;;21.20;;
9294;SDS011;4686;44.496;11.324;2023-03-04T04:26:23;31.80;;;21.43;;
9294;SDS011;4686;44.496;11.324;2023-03-04T04:28:52;30.80;;;21.87;;
9294;SDS011;4686;44.496;11.324;2023-03-04T04:31:19;27.90;;;21.20;;
9294;SDS011;4686;44.496;11.324;2023-03-04T04:33:46;29.50;;;23.10;;
9294;SDS011;4686;44.496;11.324;2023-03-04T04:36:13;36.03;;;23.83;;
9294;SDS011;4686;44.496;11.324;2023-03-04T04:38:41;30.33;;;23.00;;
9294;SDS011;4686;44.496;11.324;2023-03-04T04:41:12;29.03;;;23.80;;
9294;SDS011;4686;44.496;11.324;2023-03-04T04:43:43;35.57;;;24.20;;
9294;SDS011;4686;44.496;11.324;2023-03-04T04:46:11;32.40;;;24.00;;
9294;SDS011;4686;44.496;11.324;2023-03-04T04:48:38;38.73;;;24.17;;
9294;SDS011;4686;44.496;11.324;2023-03-04T04:51:06;30.07;;;23.90;;
9294;SDS011;4686;44.496;11.324;2023-03-04T04:53:33;35.30;;;25.27;;
9294;SDS011;4686;44.496;11.324;2023-03-04T04:56:06;32.73;;;23.60;;
9294;SDS011;4686;44.496;11.324;2023-03-04T04:58:34;36.13;;;23.70;;
9294;SDS011;4686;44.496;11.324;2023-03-04T05:01:01;34.67;;;25.17;;
9294;SDS011;4686;44.496;11.324;2023-03-04T05:03:30;40.60;;;26.27;;
9294;SDS011;4686;44.496;11.324;2023-03-04T05:05:57;38.80;;;25.70;;
9294;SDS011;4686;44.496;11.324;2023-03-04T05:08:25;39.63;;;25.73;;
9294;SDS011;4686;44.496;11.324;2023-03-04T05:10:52;45.47;;;27.87;;
9294;SDS011;4686;44.496;11.324;2023-03-04T05:13:19;41.43;;;26.10;;
9294;SDS011;4686;44.496;11.324;2023-03-04T05:15:47;51.93;;;28.27;;
9294;SDS011;4686;44.496;11.324;2023-03-04T05:18:16;39.20;;;25.60;;
9294;SDS011;4686;44.496;11.324;2023-03-04T05:20:45;56.03;;;29.83;;
9294;SDS011;4686;44.496;11.324;2023-03-04T05:23:15;47.77;;;28.73;;
9294;SDS011;4686;44.496;11.324;2023-03-04T05:25:42;51.53;;;30.10;;
9294;SDS011;4686;44.496;11.324;2023-03-04T05:28:10;42.87;;;27.40;;
9294;SDS011;4686;44.496;11.324;2023-03-04T05:30:37;39.70;;;23.87;;
9294;SDS011;4686;44.496;11.324;2023-03-04T05:33:04;29.93;;;24.00;;
9294;SDS011;4686;44.496;11.324;2023-03-04T05:35:32;30.40;;;22.57;;
9294;SDS011;4686;44.496;11.324;2023-03-04T05:38:01;28.13;;;21.80;;
9294;SDS011;4686;44.496;11.324;2023-03-04T05:40:29;29.60;;;23.00;;
9294;SDS011;4686;44.496;11.324;2023-03-04T05:42:56;34.83;;;22.83;;
9294;SDS011;4686;44.496;11.324;2023-03-04T05:45:23;27.40;;;21.87;;
9294;SDS011;4686;44.496;11.324;2023-03-04T05:47:51;31.10;;;21.70;;
9294;SDS011;4686;44.496;11.324;2023-03-04T05:50:19;30.80;;;21.90;;
9294;SDS011;4686;44.496;11.324;2023-03-04T05:52:46;28.00;;;22.00;;
9294;SDS011;4686;44.496;11.324;2023-03-04T05:55:15;37.30;;;22.67;;
9294;SDS011;4686;44.496;11.324;2023-03-04T05:57:43;27.13;;;22.37;;
9294;SDS011;4686;44.496;11.324;2023-03-04T06:00:11;35.47;;;21.80;;
9294;SDS011;4686;44.496;11.324;2023-03-04T06:02:39;28.70;;;21.53;;
9294;SDS011;4686;44.496;11.324;2023-03-04T06:05:07;26.20;;;21.00;;
9294;SDS011;4686;44.496;11.324;2023-03-04T06:07:34;29.70;;;22.30;;
9294;SDS011;4686;44.496;11.324;2023-03-04T06:10:02;29.67;;;21.23;;
9294;SDS011;4686;44.496;11.324;2023-03-04T06:12:30;27.47;;;20.27;;
9294;SDS011;4686;44.496;11.324;2023-03-04T06:14:58;27.90;;;20.67;;
9294;SDS011;4686;44.496;11.324;2023-03-04T06:17:26;24.20;;;20.37;;
9294;SDS011;4686;44.496;11.324;2023-03-04T06:19:53;27.00;;;20.20;;
9294;SDS011;4686;44.496;11.324;2023-03-04T06:22:21;28.13;;;20.47;;
9294;SDS011;4686;44.496;11.324;2023-03-04T06:24:48;24.10;;;20.20;;
9294;SDS011;4686;44.496;11.324;2023-03-04T06:27:15;31.07;;;21.00;;
9294;SDS011;4686;44.496;11.324;2023-03-04T06:29:44;25.23;;;19.07;;
9294;SDS011;4686;44.496;11.324;2023-03-04T06:32:11;33.80;;;20.83;;
9294;SDS011;4686;44.496;11.324;2023-03-04T06:34:39;29.90;;;20.70;;
9294;SDS011;4686;44.496;11.324;2023-03-04T06:37:06;25.77;;;18.87;;
9294;SDS011;4686;44.496;11.324;2023-03-04T06:39:33;27.03;;;21.40;;
9294;SDS011;4686;44.496;11.324;2023-03-04T06:42:01;28.40;;;20.33;;
9294;SDS011;4686;44.496;11.324;2023-03-04T06:44:28;29.97;;;21.27;;
9294;SDS011;4686;44.496;11.324;2023-03-04T06:46:57;26.07;;;20.17;;
9294;SDS011;4686;44.496;11.324;2023-03-04T06:49:24;25.60;;;20.93;;
9294;SDS011;4686;44.496;11.324;2023-03-04T06:51:52;29.00;;;19.47;;
9294;SDS011;4686;44.496;11.324;2023-03-04T06:54:19;25.00;;;20.90;;
9294;SDS011;4686;44.496;11.324;2023-03-04T06:56:46;28.63;;;22.27;;
9294;SDS011;4686;44.496;11.324;2023-03-04T06:59:14;27.03;;;20.37;;
9294;SDS011;4686;44.496;11.324;2023-03-04T07:01:41;24.97;;;19.97;;
9294;SDS011;4686;44.496;11.324;2023-03-04T07:04:13;26.37;;;20.03;;
9294;SDS011;4686;44.496;11.324;2023-03-04T07:06:40;26.80;;;21.20;;
9294;SDS011;4686;44.496;11.324;2023-03-04T07:09:10;25.30;;;19.73;;
9294;SDS011;4686;44.496;11.324;2023-03-04T07:11:37;30.47;;;20.63;;
9294;SDS011;4686;44.496;11.324;2023-03-04T07:14:05;26.97;;;19.93;;
9294;SDS011;4686;44.496;11.324;2023-03-04T07:16:32;28.67;;;21.20;;
9294;SDS011;4686;44.496;11.324;2023-03-04T07:18:59;30.70;;;20.40;;
9294;SDS011;4686;44.496;11.324;2023-03-04T07:21:28;29.97;;;22.13;;
9294;SDS011;4686;44.496;11.324;2023-03-04T07:23:55;31.17;;;20.40;;
9294;SDS011;4686;44.496;11.324;2023-03-04T07:26:22;37.23;;;21.63;;
9294;SDS011;4686;44.496;11.324;2023-03-04T07:28:50;30.37;;;20.07;;
9294;SDS011;4686;44.496;11.324;2023-03-04T07:31:19;26.50;;;19.70;;
9294;SDS011;4686;44.496;11.324;2023-03-04T07:33:47;27.33;;;20.77;;
9294;SDS011;4686;44.496;11.324;2023-03-04T07:36:17;26.53;;;21.20;;
9294;SDS011;4686;44.496;11.324;2023-03-04T07:38:46;32.60;;;22.70;;
9294;SDS011;4686;44.496;11.324;2023-03-04T07:41:16;34.40;;;22.20;;
9294;SDS011;4686;44.496;11.324;2023-03-04T07:43:43;44.10;;;23.87;;
9294;SDS011;4686;44.496;11.324;2023-03-04T07:46:11;42.33;;;25.07;;
9294;SDS011;4686;44.496;11.324;2023-03-04T07:48:38;36.30;;;22.93;;
9294;SDS011;4686;44.496;11.324;2023-03-04T07:51:06;32.60;;;23.83;;
9294;SDS011;4686;44.496;11.324;2023-03-04T07:53:34;35.20;;;25.20;;
9294;SDS011;4686;44.496;11.324;2023-03-04T07:56:03;34.23;;;25.60;;
9294;SDS011;4686;44.496;11.324;2023-03-04T07:58:31;38.50;;;24.67;;
9294;SDS011;4686;44.496;11.324;2023-03-04T08:00:58;46.50;;;26.40;;
9294;SDS011;4686;44.496;11.324;2023-03-04T08:03:26;36.57;;;25.00;;
9294;SDS011;4686;44.496;11.324;2023-03-04T08:05:54;37.97;;;24.90;;
9294;SDS011;4686;44.496;11.324;2023-03-04T08:08:22;41.37;;;23.97;;
9294;SDS011;4686;44.496;11.324;2023-03-04T08:10:49;29.03;;;23.90;;
9294;SDS011;4686;44.496;11.324;2023-03-04T08:13:17;31.10;;;22.40;;
9294;SDS011;4686;44.496;11.324;2023-03-04T08:15:45;32.50;;;24.17;;
9294;SDS011;4686;44.496;11.324;2023-03-04T08:18:12;44.27;;;26.30;;
9294;SDS011;4686;44.496;11.324;2023-03-04T08:20:40;36.40;;;23.70;;
9294;SDS011;4686;44.496;11.324;2023-03-04T08:23:08;32.60;;;23.50;;
9294;SDS011;4686;44.496;11.324;2023-03-04T08:25:37;34.40;;;23.93;;
9294;SDS011;4686;44.496;11.324;2023-03-04T08:28:04;35.77;;;23.30;;
9294;SDS011;4686;44.496;11.324;2023-03-04T08:30:33;31.37;;;22.87;;
9294;SDS011;4686;44.496;11.324;2023-03-04T08:33:00;31.03;;;23.00;;
9294;SDS011;4686;44.496;11.324;2023-03-04T08:35:28;28.53;;;21.97;;
9294;SDS011;4686;44.496;11.324;2023-03-04T08:37:55;40.77;;;24.43;;
9294;SDS011;4686;44.496;11.324;2023-03-04T08:40:22;35.70;;;23.70;;
9294;SDS011;4686;44.496;11.324;2023-03-04T08:42:51;33.70;;;24.27;;
9294;SDS011;4686;44.496;11.324;2023-03-04T08:45:18;32.13;;;23.03;;
9294;SDS011;4686;44.496;11.324;2023-03-04T08:47:46;38.27;;;23.93;;
9294;SDS011;4686;44.496;11.324;2023-03-04T08:50:14;31.00;;;22.67;;
9294;SDS011;4686;44.496;11.324;2023-03-04T08:52:41;37.50;;;23.07;;
9294;SDS011;4686;44.496;11.324;2023-03-04T08:55:08;33.40;;;23.17;;
9294;SDS011;4686;44.496;11.324;2023-03-04T08:57:35;38.10;;;25.23;;
9294;SDS011;4686;44.496;11.324;2023-03-04T09:00:03;32.23;;;24.40;;
9294;SDS011;4686;44.496;11.324;2023-03-04T09:02:30;37.90;;;27.40;;
9294;SDS011;4686;44.496;11.324;2023-03-04T09:04:59;40.20;;;27.63;;
9294;SDS011;4686;44.496;11.324;2023-03-04T09:07:26;37.33;;;27.90;;
9294;SDS011;4686;44.496;11.324;2023-03-04T09:09:54;35.77;;;26.90;;
9294;SDS011;4686;44.496;11.324;2023-03-04T09:12:21;37.67;;;26.90;;
9294;SDS011;4686;44.496;11.324;2023-03-04T09:14:48;40.47;;;29.87;;
9294;SDS011;4686;44.496;11.324;2023-03-04T09:17:15;41.73;;;27.90;;
9294;SDS011;4686;44.496;11.324;2023-03-04T09:19:42;37.77;;;27.10;;
9294;SDS011;4686;44.496;11.324;2023-03-04T09:22:11;38.83;;;27.10;;
9294;SDS011;4686;44.496;11.324;2023-03-04T09:24:38;45.33;;;26.90;;
9294;SDS011;4686;44.496;11.324;2023-03-04T09:27:06;39.40;;;27.53;;
9294;SDS011;4686;44.496;11.324;2023-03-04T09:29:35;33.93;;;27.53;;
9294;SDS011;4686;44.496;11.324;2023-03-04T09:32:02;31.80;;;24.70;;
9294;SDS011;4686;44.496;11.324;2023-03-04T09:34:29;38.13;;;25.70;;
9294;SDS011;4686;44.496;11.324;2023-03-04T09:36:56;33.97;;;26.20;;
9294;SDS011;4686;44.496;11.324;2023-03-04T09:39:25;35.80;;;25.70;;
9294;SDS011;4686;44.496;11.324;2023-03-04T09:41:53;35.83;;;24.30;;
9294;SDS011;4686;44.496;11.324;2023-03-04T09:44:22;34.43;;;25.87;;
9294;SDS011;4686;44.496;11.324;2023-03-04T09:46:51;36.80;;;24.50;;
9294;SDS011;4686;44.496;11.324;2023-03-04T09:49:22;28.30;;;23.60;;
9294;SDS011;4686;44.496;11.324;2023-03-04T09:51:54;33.17;;;24.60;;
9294;SDS011;4686;44.496;11.324;2023-03-04T09:54:28;33.13;;;24.73;;
9294;SDS011;4686;44.496;11.324;2023-03-04T09:56:59;31.63;;;23.43;;
9294;SDS011;4686;44.496;11.324;2023-03-04T09:59:34;33.27;;;23.80;;
9294;SDS011;4686;44.496;11.324;2023-03-04T10:02:11;29.70;;;20.70;;
9294;SDS011;4686;44.496;11.324;2023-03-04T10:04:43;37.07;;;23.10;;
9294;SDS011;4686;44.496;11.324;2023-03-04T10:07:14;29.20;;;23.00;;
9294;SDS011;4686;44.496;11.324;2023-03-04T10:09:46;29.93;;;20.43;;
9294;SDS011;4686;44.496;11.324;2023-03-04T10:12:14;30.37;;;21.30;;
9294;SDS011;4686;44.496;11.324;2023-03-04T10:14:43;30.57;;;19.80;;
9294;SDS011;4686;44.496;11.324;2023-03-04T10:17:16;26.60;;;20.13;;
9294;SDS011;4686;44.496;11.324;2023-03-04T10:19:50;28.97;;;18.97;;
9294;SDS011;4686;44.496;11.324;2023-03-04T10:22:20;21.23;;;15.70;;
9294;SDS011;4686;44.496;11.324;2023-03-04T10:24:50;25.83;;;19.13;;
9294;SDS011;4686;44.496;11.324;2023-03-04T10:27:19;26.60;;;19.83;;
9294;SDS011;4686;44.496;11.324;2023-03-04T10:29:47;22.57;;;17.93;;
9294;SDS011;4686;44.496;11.324;2023-03-04T10:32:15;40.60;;;21.47;;
9294;SDS011;4686;44.496;11.324;2023-03-04T10:34:43;27.90;;;20.57;;
9294;SDS011;4686;44.496;11.324;2023-03-04T10:37:10;31.53;;;22.37;;
9294;SDS011;4686;44.496;11.324;2023-03-04T10:39:38;23.10;;;20.00;;
9294;SDS011;4686;44.496;11.324;2023-03-04T10:42:21;27.00;;;20.17;;
9294;SDS011;4686;44.496;11.324;2023-03-04T10:44:50;25.00;;;20.30;;
9294;SDS011;4686;44.496;11.324;2023-03-04T10:47:18;29.30;;;22.60;;
9294;SDS011;4686;44.496;11.324;2023-03-04T10:49:49;22.53;;;19.20;;
9294;SDS011;4686;44.496;11.324;2023-03-04T10:52:18;27.20;;;20.97;;
9294;SDS011;4686;44.496;11.324;2023-03-04T10:54:49;27.90;;;21.10;;
9294;SDS011;4686;44.496;11.324;2023-03-04T10:57:19;39.00;;;20.90;;
9294;SDS011;4686;44.496;11.324;2023-03-04T10:59:48;37.23;;;23.27;;
9294;SDS011;4686;44.496;11.324;2023-03-04T11:02:21;31.13;;;20.70;;
9294;SDS011;4686;44.496;11.324;2023-03-04T11:04:49;31.87;;;22.87;;
9294;SDS011;4686;44.496;11.324;2023-03-04T11:07:17;33.43;;;23.83;;
9294;SDS011;4686;44.496;11.324;2023-03-04T11:09:45;27.93;;;21.90;;
9294;SDS011;4686;44.496;11.324;2023-03-04T11:12:13;26.47;;;19.73;;
9294;SDS011;4686;44.496;11.324;2023-03-04T11:14:44;28.83;;;19.93;;
9294;SDS011;4686;44.496;11.324;2023-03-04T11:17:20;28.43;;;22.03;;
9294;SDS011;4686;44.496;11.324;2023-03-04T11:19:50;24.00;;;19.00;;
9294;SDS011;4686;44.496;11.324;2023-03-04T11:22:19;21.70;;;18.67;;
9294;SDS011;4686;44.496;11.324;2023-03-04T11:24:48;24.80;;;19.40;;
9294;SDS011;4686;44.496;11.324;2023-03-04T11:27:20;25.17;;;20.17;;
9294;SDS011;4686;44.496;11.324;2023-03-04T11:29:51;23.97;;;18.23;;
9294;SDS011;4686;44.496;11.324;2023-03-04T11:32:23;25.20;;;18.77;;
9294;SDS011;4686;44.496;11.324;2023-03-04T11:34:53;33.07;;;19.87;;
9294;SDS011;4686;44.496;11.324;2023-03-04T11:37:23;28.30;;;20.60;;
9294;SDS011;4686;44.496;11.324;2023-03-04T11:39:53;29.60;;;20.13;;
9294;SDS011;4686;44.496;11.324;2023-03-04T11:42:25;32.00;;;21.73;;
9294;SDS011;4686;44.496;11.324;2023-03-04T11:44:56;27.70;;;21.30;;
9294;SDS011;4686;44.496;11.324;2023-03-04T11:47:27;30.77;;;19.80;;
9294;SDS011;4686;44.496;11.324;2023-03-04T11:52:52;24.40;;;17.87;;
9294;SDS011;4686;44.496;11.324;2023-03-04T11:55:24;25.07;;;18.83;;
9294;SDS011;4686;44.496;11.324;2023-03-04T11:57:55;23.10;;;18.50;;
9294;SDS011;4686;44.496;11.324;2023-03-04T12:00:44;28.13;;;18.70;;
9294;SDS011;4686;44.496;11.324;2023-03-04T12:03:21;25.63;;;18.30;;
9294;SDS011;4686;44.496;11.324;2023-03-04T12:05:52;23.70;;;18.00;;
9294;SDS011;4686;44.496;11.324;2023-03-04T12:08:32;25.83;;;20.43;;
9294;SDS011;4686;44.496;11.324;2023-03-04T12:11:05;32.13;;;22.77;;
9294;SDS011;4686;44.496;11.324;2023-03-04T12:16:22;24.77;;;17.83;;
9294;SDS011;4686;44.496;11.324;2023-03-04T12:19:02;21.90;;;18.30;;
9294;SDS011;4686;44.496;11.324;2023-03-04T12:21:36;23.70;;;17.07;;
9294;SDS011;4686;44.496;11.324;2023-03-04T12:24:10;22.30;;;17.37;;
9294;SDS011;4686;44.496;11.324;2023-03-04T12:26:42;23.87;;;18.50;;
9294;SDS011;4686;44.496;11.324;2023-03-04T12:29:12;26.50;;;18.10;;
9294;SDS011;4686;44.496;11.324;2023-03-04T12:31:42;25.93;;;18.53;;
9294;SDS011;4686;44.496;11.324;2023-03-04T12:37:03;22.50;;;15.03;;
9294;SDS011;4686;44.496;11.324;2023-03-04T12:39:36;24.07;;;17.37;;
9294;SDS011;4686;44.496;11.324;2023-03-04T12:42:09;20.07;;;14.87;;
9294;SDS011;4686;44.496;11.324;2023-03-04T12:44:43;26.70;;;18.30;;
9294;SDS011;4686;44.496;11.324;2023-03-04T12:47:18;24.07;;;14.73;;
9294;SDS011;4686;44.496;11.324;2023-03-04T12:49:50;19.77;;;15.10;;
9294;SDS011;4686;44.496;11.324;2023-03-04T12:52:24;23.03;;;15.77;;
9294;SDS011;4686;44.496;11.324;2023-03-04T12:54:55;20.07;;;16.47;;
9294;SDS011;4686;44.496;11.324;2023-03-04T12:57:24;25.40;;;16.80;;
9294;SDS011;4686;44.496;11.324;2023-03-04T12:59:56;23.40;;;15.00;;
9294;SDS011;4686;44.496;11.324;2023-03-04T13:02:33;22.73;;;14.87;;
9294;SDS011;4686;44.496;11.324;2023-03-04T13:05:03;26.37;;;16.00;;
9294;SDS011;4686;44.496;11.324;2023-03-04T13:07:40;21.60;;;16.60;;
9294;SDS011;4686;44.496;11.324;2023-03-04T13:10:09;21.47;;;16.63;;
9294;SDS011;4686;44.496;11.324;2023-03-04T13:12:46;25.43;;;17.27;;
9294;SDS011;4686;44.496;11.324;2023-03-04T13:18:02;17.43;;;15.50;;
9294;SDS011;4686;44.496;11.324;2023-03-04T13:20:33;21.40;;;16.03;;
9294;SDS011;4686;44.496;11.324;2023-03-04T13:23:02;21.13;;;17.00;;
9294;SDS011;4686;44.496;11.324;2023-03-04T13:25:31;28.13;;;15.43;;
9294;SDS011;4686;44.496;11.324;2023-03-04T13:28:12;23.43;;;15.13;;
9294;SDS011;4686;44.496;11.324;2023-03-04T13:33:45;20.37;;;17.67;;
9294;SDS011;4686;44.496;11.324;2023-03-04T13:36:29;20.60;;;14.87;;
9294;SDS011;4686;44.496;11.324;2023-03-04T13:38:57;30.53;;;15.40;;
9294;SDS011;4686;44.496;11.324;2023-03-04T13:41:28;17.53;;;14.33;;
9294;SDS011;4686;44.496;11.324;2023-03-04T13:43:56;20.13;;;15.70;;
9294;SDS011;4686;44.496;11.324;2023-03-04T13:46:27;26.40;;;16.80;;
9294;SDS011;4686;44.496;11.324;2023-03-04T13:49:00;24.43;;;17.67;;
9294;SDS011;4686;44.496;11.324;2023-03-04T13:51:28;23.80;;;16.03;;
9294;SDS011;4686;44.496;11.324;2023-03-04T13:54:05;44.67;;;30.20;;
9294;SDS011;4686;44.496;11.324;2023-03-04T13:56:34;36.97;;;25.67;;
9294;SDS011;4686;44.496;11.324;2023-03-04T13:59:03;23.83;;;17.30;;
9294;SDS011;4686;44.496;11.324;2023-03-04T14:01:32;28.07;;;21.53;;
9294;SDS011;4686;44.496;11.324;2023-03-04T14:04:09;20.57;;;16.47;;
9294;SDS011;4686;44.496;11.324;2023-03-04T14:06:40;20.93;;;14.57;;
9294;SDS011;4686;44.496;11.324;2023-03-04T14:09:11;20.30;;;15.10;;
9294;SDS011;4686;44.496;11.324;2023-03-04T14:11:39;23.13;;;15.20;;
9294;SDS011;4686;44.496;11.324;2023-03-04T14:14:09;19.30;;;15.57;;
9294;SDS011;4686;44.496;11.324;2023-03-04T14:16:37;25.07;;;16.10;;
9294;SDS011;4686;44.496;11.324;2023-03-04T14:19:06;21.33;;;15.93;;
9294;SDS011;4686;44.496;11.324;2023-03-04T14:21:43;25.40;;;16.00;;
9294;SDS011;4686;44.496;11.324;2023-03-04T14:24:11;23.93;;;15.27;;
9294;SDS011;4686;44.496;11.324;2023-03-04T14:26:39;19.53;;;15.93;;
9294;SDS011;4686;44.496;11.324;2023-03-04T14:29:18;17.13;;;13.17;;
9294;SDS011;4686;44.496;11.324;2023-03-04T14:31:46;17.93;;;13.40;;
9294;SDS011;4686;44.496;11.324;2023-03-04T14:34:16;25.93;;;13.87;;
9294;SDS011;4686;44.496;11.324;2023-03-04T14:36:46;19.03;;;14.17;;
9294;SDS011;4686;44.496;11.324;2023-03-04T14:39:14;19.50;;;13.03;;
9294;SDS011;4686;44.496;11.324;2023-03-04T14:41:41;22.23;;;14.80;;
9294;SDS011;4686;44.496;11.324;2023-03-04T14:44:11;15.13;;;12.90;;
9294;SDS011;4686;44.496;11.324;2023-03-04T14:46:41;19.33;;;12.20;;
9294;SDS011;4686;44.496;11.324;2023-03-04T14:49:10;15.07;;;11.80;;
9294;SDS011;4686;44.496;11.324;2023-03-04T14:51:40;14.50;;;12.37;;
9294;SDS011;4686;44.496;11.324;2023-03-04T14:54:29;15.07;;;11.03;;
9294;SDS011;4686;44.496;11.324;2023-03-04T14:56:57;15.40;;;12.50;;